NCAR-RAP Real-Time Weather Data

Output produced by METARs form (06 May 2021  16:45 UTC)
found at http://weather.rap.ucar.edu/surface/
 
KACT 061551Z VRB03KT 10SM CLR 24/14 A3024 RMK AO2 SLP234 T02390139
KACT 061451Z 00000KT 10SM CLR 22/14 A3023 RMK AO2 SLP233 T02220139 51008
KACT 061351Z 00000KT 10SM CLR 19/13 A3023 RMK AO2 SLP233 T01890128 $
KACT 061251Z 00000KT 10SM CLR 15/12 A3024 RMK AO2 SLP234 T01500117 $
KACT 061151Z 00000KT 10SM CLR 11/09 A3021 RMK AO2 SLP225 T01110094 10139 20111 51015 $
KACT 061051Z AUTO 01004KT 10SM CLR 11/09 A3020 RMK AO2 SLP222 T01110094 $
KACT 060951Z AUTO 00000KT 10SM CLR 13/09 A3018 RMK AO2 SLP214 T01280094 $
KACT 060851Z AUTO 01005KT 10SM CLR 12/09 A3016 RMK AO2 SLP210 T01220094 53009 $
KACT 060751Z AUTO 35008KT 10SM CLR 14/10 A3016 RMK AO2 SLP207 T01390100 $
KACT 060651Z AUTO 36004KT 10SM CLR 13/09 A3014 RMK AO2 SLP201 T01330094 $
KACT 060551Z AUTO 36003KT 10SM CLR 13/09 A3014 RMK AO2 SLP200 T01280094 10244 20122 402610100 50011 $
KACT 060451Z AUTO 35003KT 10SM CLR 13/09 A3014 RMK AO2 SLP204 T01280094 $
KACT 060351Z 36005KT 10SM CLR 14/10 A3012 RMK AO2 SLP197 T01390100 $
KACT 060251Z 02003KT 10SM CLR 17/09 A3010 RMK AO2 SLP189 T01670089 53015
KACT 060151Z 05004KT 10SM CLR 17/09 A3007 RMK AO2 SLP180 T01720094